sensor_id;sensor_type;location;lat;lon;timestamp;pressure;altitude;pressure_sealevel;temperature;humidity
5883;BME280;2967;51.488;6.618;2023-04-27T00:01:57;101732.22;;;7.53;100.00
5883;BME280;2967;51.488;6.618;2023-04-27T00:07:00;101743.34;;;7.59;100.00
5883;BME280;2967;51.488;6.618;2023-04-27T00:12:03;101512.75;;;6.19;100.00
5883;BME280;2967;51.488;6.618;2023-04-27T00:17:08;101739.38;;;7.25;100.00
5883;BME280;2967;51.488;6.618;2023-04-27T00:22:10;101761.56;;;6.93;100.00
5883;BME280;2967;51.488;6.618;2023-04-27T00:27:16;101747.31;;;6.99;100.00
5883;BME280;2967;51.488;6.618;2023-04-27T00:32:21;101734.09;;;7.02;100.00
5883;BME280;2967;51.488;6.618;2023-04-27T00:37:24;101744.84;;;6.94;100.00
5883;BME280;2967;51.488;6.618;2023-04-27T00:42:27;101741.63;;;6.86;100.00
5883;BME280;2967;51.488;6.618;2023-04-27T00:47:32;101557.38;;;5.68;100.00
5883;BME280;2967;51.488;6.618;2023-04-27T00:52:36;101757.31;;;6.89;100.00
5883;BME280;2967;51.488;6.618;2023-04-27T00:57:39;101624.44;;;6.04;100.00
5883;BME280;2967;51.488;6.618;2023-04-27T01:02:46;101758.44;;;6.82;100.00
5883;BME280;2967;51.488;6.618;2023-04-27T01:07:51;101755.13;;;6.77;100.00
5883;BME280;2967;51.488;6.618;2023-04-27T01:12:53;101752.88;;;6.65;100.00
5883;BME280;2967;51.488;6.618;2023-04-27T01:17:58;101757.94;;;6.71;100.00
5883;BME280;2967;51.488;6.618;2023-04-27T01:23:01;101762.28;;;6.72;100.00
5883;BME280;2967;51.488;6.618;2023-04-27T01:28:05;101761.16;;;6.53;100.00
5883;BME280;2967;51.488;6.618;2023-04-27T01:33:11;101753.84;;;6.37;100.00
5883;BME280;2967;51.488;6.618;2023-04-27T01:38:13;101767.19;;;6.57;100.00
5883;BME280;2967;51.488;6.618;2023-04-27T01:43:19;101761.38;;;6.73;100.00
5883;BME280;2967;51.488;6.618;2023-04-27T01:48:21;101769.38;;;6.70;100.00
5883;BME280;2967;51.488;6.618;2023-04-27T01:53:24;101764.25;;;6.66;100.00
5883;BME280;2967;51.488;6.618;2023-04-27T01:58:29;101785.44;;;6.61;100.00
5883;BME280;2967;51.488;6.618;2023-04-27T02:03:31;101787.00;;;6.67;100.00
5883;BME280;2967;51.488;6.618;2023-04-27T02:08:34;101782.84;;;6.60;100.00
5883;BME280;2967;51.488;6.618;2023-04-27T02:13:38;101768.38;;;6.48;100.00
5883;BME280;2967;51.488;6.618;2023-04-27T02:18:41;101769.28;;;6.47;100.00
5883;BME280;2967;51.488;6.618;2023-04-27T02:23:44;101769.94;;;6.54;100.00
5883;BME280;2967;51.488;6.618;2023-04-27T02:28:49;101773.22;;;6.60;100.00
5883;BME280;2967;51.488;6.618;2023-04-27T02:33:53;101766.50;;;6.52;100.00
5883;BME280;2967;51.488;6.618;2023-04-27T02:38:58;101772.34;;;6.60;100.00
5883;BME280;2967;51.488;6.618;2023-04-27T02:44:03;101768.66;;;6.39;100.00
5883;BME280;2967;51.488;6.618;2023-04-27T02:49:06;101765.16;;;6.39;100.00
5883;BME280;2967;51.488;6.618;2023-04-27T02:54:08;101765.81;;;6.45;100.00
5883;BME280;2967;51.488;6.618;2023-04-27T02:59:13;101759.09;;;6.37;100.00
5883;BME280;2967;51.488;6.618;2023-04-27T03:04:16;101744.38;;;6.31;100.00
5883;BME280;2967;51.488;6.618;2023-04-27T03:09:19;101738.25;;;6.31;100.00
5883;BME280;2967;51.488;6.618;2023-04-27T03:14:23;101739.84;;;6.09;100.00
5883;BME280;2967;51.488;6.618;2023-04-27T03:19:26;101741.41;;;6.16;100.00
5883;BME280;2967;51.488;6.618;2023-04-27T03:24:31;101735.78;;;5.70;100.00
5883;BME280;2967;51.488;6.618;2023-04-27T03:29:35;101752.97;;;5.81;100.00
5883;BME280;2967;51.488;6.618;2023-04-27T03:34:38;101756.34;;;5.86;100.00
5883;BME280;2967;51.488;6.618;2023-04-27T03:39:41;101750.91;;;5.91;100.00
5883;BME280;2967;51.488;6.618;2023-04-27T03:44:47;101754.25;;;5.97;100.00
5883;BME280;2967;51.488;6.618;2023-04-27T03:49:50;101756.75;;;6.02;100.00
5883;BME280;2967;51.488;6.618;2023-04-27T03:54:53;101756.66;;;6.03;100.00
5883;BME280;2967;51.488;6.618;2023-04-27T03:59:57;101771.22;;;5.86;100.00
5883;BME280;2967;51.488;6.618;2023-04-27T04:05:00;101773.53;;;5.96;100.00
5883;BME280;2967;51.488;6.618;2023-04-27T04:10:03;101776.06;;;5.99;100.00
5883;BME280;2967;51.488;6.618;2023-04-27T04:15:07;101776.19;;;5.95;100.00
5883;BME280;2967;51.488;6.618;2023-04-27T04:20:11;101772.81;;;5.91;100.00
5883;BME280;2967;51.488;6.618;2023-04-27T04:25:14;101776.88;;;6.01;100.00
5883;BME280;2967;51.488;6.618;2023-04-27T04:30:18;101780.22;;;6.06;100.00
5883;BME280;2967;51.488;6.618;2023-04-27T04:35:21;101784.72;;;6.03;100.00
5883;BME280;2967;51.488;6.618;2023-04-27T04:40:24;101788.72;;;5.85;100.00
5883;BME280;2967;51.488;6.618;2023-04-27T04:45:28;101787.00;;;5.84;100.00
5883;BME280;2967;51.488;6.618;2023-04-27T04:50:31;101786.03;;;5.88;100.00
5883;BME280;2967;51.488;6.618;2023-04-27T04:55:34;101696.53;;;5.38;100.00
5883;BME280;2967;51.488;6.618;2023-04-27T05:00:39;101798.13;;;5.94;100.00
5883;BME280;2967;51.488;6.618;2023-04-27T05:05:42;101808.53;;;5.97;100.00
5883;BME280;2967;51.488;6.618;2023-04-27T05:10:48;101810.31;;;5.96;100.00
5883;BME280;2967;51.488;6.618;2023-04-27T05:15:52;101815.56;;;5.96;100.00
5883;BME280;2967;51.488;6.618;2023-04-27T05:20:54;101822.44;;;6.00;100.00
5883;BME280;2967;51.488;6.618;2023-04-27T05:25:57;101828.31;;;6.08;100.00
5883;BME280;2967;51.488;6.618;2023-04-27T05:31:01;101752.59;;;5.93;100.00
5883;BME280;2967;51.488;6.618;2023-04-27T05:36:04;101826.59;;;6.62;100.00
5883;BME280;2967;51.488;6.618;2023-04-27T05:41:08;101826.81;;;6.82;100.00
5883;BME280;2967;51.488;6.618;2023-04-27T05:46:15;101825.44;;;6.97;100.00
5883;BME280;2967;51.488;6.618;2023-04-27T05:51:17;101827.50;;;7.13;100.00
5883;BME280;2967;51.488;6.618;2023-04-27T05:56:21;101816.13;;;7.13;100.00
5883;BME280;2967;51.488;6.618;2023-04-27T06:01:25;101851.16;;;7.39;100.00
5883;BME280;2967;51.488;6.618;2023-04-27T06:06:30;101836.78;;;7.48;100.00
5883;BME280;2967;51.488;6.618;2023-04-27T06:11:33;101837.06;;;7.65;100.00
5883;BME280;2967;51.488;6.618;2023-04-27T06:16:37;101830.59;;;7.73;100.00
5883;BME280;2967;51.488;6.618;2023-04-27T06:21:40;101836.22;;;7.87;100.00
5883;BME280;2967;51.488;6.618;2023-04-27T06:26:43;101834.22;;;7.93;100.00
5883;BME280;2967;51.488;6.618;2023-04-27T06:44:40;101842.91;;;8.41;100.00
5883;BME280;2967;51.488;6.618;2023-04-27T06:49:42;101842.50;;;8.52;100.00
5883;BME280;2967;51.488;6.618;2023-04-27T06:54:49;101824.78;;;8.55;99.89
5883;BME280;2967;51.488;6.618;2023-04-27T06:59:53;101832.13;;;8.69;96.90
5883;BME280;2967;51.488;6.618;2023-04-27T07:04:55;101828.75;;;8.87;95.83
5883;BME280;2967;51.488;6.618;2023-04-27T07:09:58;101827.56;;;8.94;93.78
5883;BME280;2967;51.488;6.618;2023-04-27T07:15:03;101833.00;;;9.11;92.99
5883;BME280;2967;51.488;6.618;2023-04-27T07:20:07;101785.13;;;8.98;91.12
5883;BME280;2967;51.488;6.618;2023-04-27T07:25:10;101803.47;;;9.21;90.49
5883;BME280;2967;51.488;6.618;2023-04-27T07:30:15;101829.88;;;9.41;89.90
5883;BME280;2967;51.488;6.618;2023-04-27T07:35:18;101829.28;;;9.55;90.26
5883;BME280;2967;51.488;6.618;2023-04-27T07:40:20;101811.00;;;9.50;88.08
5883;BME280;2967;51.488;6.618;2023-04-27T07:45:26;101830.84;;;9.79;87.96
5883;BME280;2967;51.488;6.618;2023-04-27T07:50:33;101831.06;;;9.93;88.24
5883;BME280;2967;51.488;6.618;2023-04-27T07:55:35;101821.84;;;10.01;85.91
5883;BME280;2967;51.488;6.618;2023-04-27T08:00:39;101828.41;;;10.13;86.63
5883;BME280;2967;51.488;6.618;2023-04-27T08:05:42;101822.84;;;10.19;81.21
5883;BME280;2967;51.488;6.618;2023-04-27T08:10:45;101816.19;;;10.29;82.15
5883;BME280;2967;51.488;6.618;2023-04-27T08:15:49;101815.63;;;10.41;82.06
5883;BME280;2967;51.488;6.618;2023-04-27T08:20:52;101809.72;;;10.52;80.30
5883;BME280;2967;51.488;6.618;2023-04-27T08:25:54;101805.88;;;10.59;80.26
5883;BME280;2967;51.488;6.618;2023-04-27T08:30:59;101798.25;;;10.70;82.97
5883;BME280;2967;51.488;6.618;2023-04-27T08:36:02;101802.78;;;10.85;79.31
5883;BME280;2967;51.488;6.618;2023-04-27T08:41:05;101799.28;;;11.02;79.34
5883;BME280;2967;51.488;6.618;2023-04-27T08:46:24;101796.75;;;11.17;79.25
5883;BME280;2967;51.488;6.618;2023-04-27T08:51:28;101804.81;;;11.31;78.91
5883;BME280;2967;51.488;6.618;2023-04-27T08:56:31;101808.00;;;11.38;74.54
5883;BME280;2967;51.488;6.618;2023-04-27T09:01:35;101801.81;;;11.54;78.01
5883;BME280;2967;51.488;6.618;2023-04-27T09:06:37;101793.25;;;11.66;73.98
5883;BME280;2967;51.488;6.618;2023-04-27T09:11:40;101781.22;;;11.76;75.47
5883;BME280;2967;51.488;6.618;2023-04-27T09:16:45;101783.38;;;11.85;74.09
5883;BME280;2967;51.488;6.618;2023-04-27T09:22:06;101789.03;;;11.95;75.03
5883;BME280;2967;51.488;6.618;2023-04-27T09:27:18;101784.50;;;11.97;75.20
5883;BME280;2967;51.488;6.618;2023-04-27T09:32:22;101790.06;;;12.08;72.04
5883;BME280;2967;51.488;6.618;2023-04-27T09:37:25;101783.31;;;12.18;73.87
5883;BME280;2967;51.488;6.618;2023-04-27T09:42:28;101774.94;;;12.25;73.28
5883;BME280;2967;51.488;6.618;2023-04-27T09:47:32;101776.88;;;12.37;72.85
5883;BME280;2967;51.488;6.618;2023-04-27T09:52:35;101763.22;;;12.29;70.97
5883;BME280;2967;51.488;6.618;2023-04-27T09:57:48;101761.25;;;12.33;74.10
5883;BME280;2967;51.488;6.618;2023-04-27T10:03:04;101762.00;;;12.50;73.74
5883;BME280;2967;51.488;6.618;2023-04-27T10:08:09;101755.56;;;12.54;70.85
5883;BME280;2967;51.488;6.618;2023-04-27T10:13:20;101751.00;;;12.56;72.31
5883;BME280;2967;51.488;6.618;2023-04-27T10:18:29;101747.41;;;12.73;70.57
5883;BME280;2967;51.488;6.618;2023-04-27T10:23:32;101730.25;;;12.78;64.47
5883;BME280;2967;51.488;6.618;2023-04-27T10:28:37;101735.38;;;12.81;67.96
5883;BME280;2967;51.488;6.618;2023-04-27T10:33:42;101738.81;;;12.83;66.83
5883;BME280;2967;51.488;6.618;2023-04-27T10:38:44;101715.94;;;12.81;69.39
5883;BME280;2967;51.488;6.618;2023-04-27T10:43:48;101730.72;;;13.00;63.22
5883;BME280;2967;51.488;6.618;2023-04-27T10:48:54;101726.19;;;13.02;67.31
5883;BME280;2967;51.488;6.618;2023-04-27T10:53:57;101716.78;;;13.11;66.95
5883;BME280;2967;51.488;6.618;2023-04-27T10:59:01;101714.06;;;13.12;65.26
5883;BME280;2967;51.488;6.618;2023-04-27T11:04:06;101718.34;;;13.28;65.85
5883;BME280;2967;51.488;6.618;2023-04-27T11:09:09;101723.84;;;13.39;61.82
5883;BME280;2967;51.488;6.618;2023-04-27T11:14:14;101716.81;;;13.52;57.75
5883;BME280;2967;51.488;6.618;2023-04-27T11:19:22;101715.22;;;13.78;69.48
5883;BME280;2967;51.488;6.618;2023-04-27T11:24:24;101713.59;;;14.16;68.09
5883;BME280;2967;51.488;6.618;2023-04-27T11:29:36;101697.56;;;14.17;68.04
5883;BME280;2967;51.488;6.618;2023-04-27T11:34:48;101708.75;;;14.08;68.65
5883;BME280;2967;51.488;6.618;2023-04-27T11:39:51;101695.38;;;14.10;64.44
5883;BME280;2967;51.488;6.618;2023-04-27T11:44:56;101693.25;;;14.15;65.30
5883;BME280;2967;51.488;6.618;2023-04-27T11:50:03;101675.31;;;14.18;67.64
5883;BME280;2967;51.488;6.618;2023-04-27T11:55:07;101683.41;;;14.43;68.23
5883;BME280;2967;51.488;6.618;2023-04-27T12:00:17;101683.97;;;14.61;65.13
5883;BME280;2967;51.488;6.618;2023-04-27T12:05:21;101675.19;;;14.85;65.93
5883;BME280;2967;51.488;6.618;2023-04-27T12:10:23;101678.69;;;14.86;65.37
5883;BME280;2967;51.488;6.618;2023-04-27T12:15:26;101664.31;;;14.88;65.07
5883;BME280;2967;51.488;6.618;2023-04-27T12:20:30;101668.25;;;14.95;67.62
5883;BME280;2967;51.488;6.618;2023-04-27T12:25:33;101651.84;;;15.01;67.32
5883;BME280;2967;51.488;6.618;2023-04-27T12:30:36;101661.00;;;14.97;63.04
5883;BME280;2967;51.488;6.618;2023-04-27T12:35:40;101654.50;;;15.14;66.45
5883;BME280;2967;51.488;6.618;2023-04-27T12:40:43;101659.63;;;15.17;66.96
5883;BME280;2967;51.488;6.618;2023-04-27T12:45:45;101624.97;;;15.17;57.59
5883;BME280;2967;51.488;6.618;2023-04-27T12:50:50;101646.41;;;15.53;62.49
5883;BME280;2967;51.488;6.618;2023-04-27T12:55:52;101636.13;;;15.59;61.69
5883;BME280;2967;51.488;6.618;2023-04-27T13:00:56;101642.72;;;15.79;59.91
5883;BME280;2967;51.488;6.618;2023-04-27T13:06:06;101646.81;;;16.18;55.59
5883;BME280;2967;51.488;6.618;2023-04-27T13:11:09;101643.84;;;16.57;57.06
5883;BME280;2967;51.488;6.618;2023-04-27T13:16:12;101628.00;;;16.89;56.04
5883;BME280;2967;51.488;6.618;2023-04-27T13:21:18;101646.13;;;17.18;59.05
5883;BME280;2967;51.488;6.618;2023-04-27T13:26:23;101636.34;;;17.52;46.70
5883;BME280;2967;51.488;6.618;2023-04-27T13:31:26;101632.28;;;17.68;45.76
5883;BME280;2967;51.488;6.618;2023-04-27T13:36:30;101621.50;;;18.12;46.28
5883;BME280;2967;51.488;6.618;2023-04-27T13:41:33;101619.69;;;18.44;54.63
5883;BME280;2967;51.488;6.618;2023-04-27T13:46:36;101594.47;;;18.67;47.21
5883;BME280;2967;51.488;6.618;2023-04-27T13:51:40;101618.59;;;18.87;47.19
5883;BME280;2967;51.488;6.618;2023-04-27T13:56:43;101614.44;;;19.04;52.60
5883;BME280;2967;51.488;6.618;2023-04-27T14:01:46;101608.56;;;19.10;44.70
5883;BME280;2967;51.488;6.618;2023-04-27T14:06:50;101591.72;;;19.08;44.22
5883;BME280;2967;51.488;6.618;2023-04-27T14:11:54;101596.38;;;19.06;39.25
5883;BME280;2967;51.488;6.618;2023-04-27T14:16:57;101579.09;;;18.89;44.29
5883;BME280;2967;51.488;6.618;2023-04-27T14:22:02;101580.66;;;18.72;42.99
5883;BME280;2967;51.488;6.618;2023-04-27T14:27:04;101561.84;;;18.42;47.53
5883;BME280;2967;51.488;6.618;2023-04-27T14:32:07;101569.81;;;18.53;45.60
5883;BME280;2967;51.488;6.618;2023-04-27T14:37:12;101554.47;;;18.55;47.40
5883;BME280;2967;51.488;6.618;2023-04-27T14:42:14;101551.25;;;18.61;47.66
5883;BME280;2967;51.488;6.618;2023-04-27T14:47:17;101540.72;;;18.48;43.84
5883;BME280;2967;51.488;6.618;2023-04-27T14:52:21;101532.16;;;18.34;42.37
5883;BME280;2967;51.488;6.618;2023-04-27T14:57:24;101523.72;;;17.86;43.97
5883;BME280;2967;51.488;6.618;2023-04-27T15:02:27;101520.66;;;17.70;48.26
5883;BME280;2967;51.488;6.618;2023-04-27T15:07:35;101523.75;;;17.55;44.54
5883;BME280;2967;51.488;6.618;2023-04-27T15:12:38;101523.00;;;17.42;46.73
5883;BME280;2967;51.488;6.618;2023-04-27T15:17:41;101530.06;;;17.32;50.78
5883;BME280;2967;51.488;6.618;2023-04-27T15:22:45;101517.31;;;17.24;47.07
5883;BME280;2967;51.488;6.618;2023-04-27T15:27:47;101509.31;;;17.13;44.79
5883;BME280;2967;51.488;6.618;2023-04-27T15:32:50;101513.19;;;16.98;48.51
5883;BME280;2967;51.488;6.618;2023-04-27T15:37:54;101504.81;;;16.92;56.64
5883;BME280;2967;51.488;6.618;2023-04-27T15:42:57;101498.75;;;16.79;57.58
5883;BME280;2967;51.488;6.618;2023-04-27T15:47:59;101493.31;;;16.69;57.74
5883;BME280;2967;51.488;6.618;2023-04-27T15:53:04;101474.81;;;16.44;56.59
5883;BME280;2967;51.488;6.618;2023-04-27T15:58:06;101489.25;;;16.53;54.29
5883;BME280;2967;51.488;6.618;2023-04-27T16:03:09;101465.47;;;16.39;55.05
5883;BME280;2967;51.488;6.618;2023-04-27T16:08:15;101461.97;;;16.38;53.62
5883;BME280;2967;51.488;6.618;2023-04-27T16:13:18;101469.44;;;16.33;57.67
5883;BME280;2967;51.488;6.618;2023-04-27T16:18:21;101453.16;;;16.25;61.04
5883;BME280;2967;51.488;6.618;2023-04-27T16:23:25;101446.81;;;16.15;56.91
5883;BME280;2967;51.488;6.618;2023-04-27T16:28:28;101437.09;;;16.03;56.82
5883;BME280;2967;51.488;6.618;2023-04-27T16:33:32;101442.16;;;15.95;58.03
5883;BME280;2967;51.488;6.618;2023-04-27T16:38:36;101447.00;;;15.80;55.72
5883;BME280;2967;51.488;6.618;2023-04-27T16:43:40;101441.63;;;15.69;57.70
5883;BME280;2967;51.488;6.618;2023-04-27T16:48:42;101431.75;;;15.58;57.59
5883;BME280;2967;51.488;6.618;2023-04-27T16:53:47;101426.66;;;15.55;61.75
5883;BME280;2967;51.488;6.618;2023-04-27T16:58:51;101418.47;;;15.46;60.77
5883;BME280;2967;51.488;6.618;2023-04-27T17:03:54;101318.34;;;14.84;60.59
5883;BME280;2967;51.488;6.618;2023-04-27T17:09:00;101408.63;;;15.23;60.12
5883;BME280;2967;51.488;6.618;2023-04-27T17:14:03;101402.53;;;15.10;60.19
5883;BME280;2967;51.488;6.618;2023-04-27T17:19:07;101395.94;;;15.03;62.89
5883;BME280;2967;51.488;6.618;2023-04-27T17:24:14;101394.59;;;14.85;59.94
5883;BME280;2967;51.488;6.618;2023-04-27T17:29:16;101396.13;;;14.76;60.06
5883;BME280;2967;51.488;6.618;2023-04-27T17:34:20;101388.41;;;14.61;62.27
5883;BME280;2967;51.488;6.618;2023-04-27T17:39:29;101380.34;;;14.50;61.55
5883;BME280;2967;51.488;6.618;2023-04-27T17:44:35;101384.63;;;14.40;62.78
5883;BME280;2967;51.488;6.618;2023-04-27T17:49:39;101314.59;;;13.89;66.12
5883;BME280;2967;51.488;6.618;2023-04-27T17:54:43;101378.16;;;14.19;64.02
5883;BME280;2967;51.488;6.618;2023-04-27T17:59:46;101378.94;;;14.07;65.64
5883;BME280;2967;51.488;6.618;2023-04-27T18:04:51;101371.50;;;13.99;64.51
5883;BME280;2967;51.488;6.618;2023-04-27T18:09:58;101349.94;;;13.79;64.09
5883;BME280;2967;51.488;6.618;2023-04-27T18:15:01;101368.31;;;13.82;65.90
5883;BME280;2967;51.488;6.618;2023-04-27T18:20:07;101373.88;;;13.79;65.24
5883;BME280;2967;51.488;6.618;2023-04-27T18:25:12;101371.59;;;13.73;64.91
5883;BME280;2967;51.488;6.618;2023-04-27T18:30:15;101375.63;;;13.66;65.90
5883;BME280;2967;51.488;6.618;2023-04-27T18:35:18;101372.44;;;13.61;63.66
5883;BME280;2967;51.488;6.618;2023-04-27T18:40:22;101378.38;;;13.52;66.36
5883;BME280;2967;51.488;6.618;2023-04-27T18:45:26;101378.59;;;13.49;66.10
5883;BME280;2967;51.488;6.618;2023-04-27T18:50:29;101376.44;;;13.41;65.27
5883;BME280;2967;51.488;6.618;2023-04-27T18:55:33;101360.06;;;13.35;65.65
5883;BME280;2967;51.488;6.618;2023-04-27T19:00:36;101372.81;;;13.30;65.41
5883;BME280;2967;51.488;6.618;2023-04-27T19:05:40;101364.09;;;13.28;67.19
5883;BME280;2967;51.488;6.618;2023-04-27T19:10:45;101363.00;;;13.18;66.69
5883;BME280;2967;51.488;6.618;2023-04-27T19:15:48;101364.72;;;13.19;66.47
5883;BME280;2967;51.488;6.618;2023-04-27T19:20:50;101374.56;;;13.17;66.27
5883;BME280;2967;51.488;6.618;2023-04-27T19:25:54;101381.03;;;13.13;67.48
5883;BME280;2967;51.488;6.618;2023-04-27T19:31:10;101367.41;;;13.05;66.86
5883;BME280;2967;51.488;6.618;2023-04-27T19:36:13;101370.94;;;13.06;65.87
5883;BME280;2967;51.488;6.618;2023-04-27T19:41:17;101364.97;;;13.02;67.43
5883;BME280;2967;51.488;6.618;2023-04-27T19:46:19;101362.81;;;12.95;65.83
5883;BME280;2967;51.488;6.618;2023-04-27T19:51:22;101378.25;;;13.02;66.91
5883;BME280;2967;51.488;6.618;2023-04-27T19:56:26;101365.47;;;12.95;66.48
5883;BME280;2967;51.488;6.618;2023-04-27T20:01:29;101336.75;;;12.73;66.74
5883;BME280;2967;51.488;6.618;2023-04-27T20:06:32;101362.00;;;12.93;68.56
5883;BME280;2967;51.488;6.618;2023-04-27T20:11:36;101359.69;;;12.88;67.50
5883;BME280;2967;51.488;6.618;2023-04-27T20:16:39;101344.59;;;12.89;67.08
5883;BME280;2967;51.488;6.618;2023-04-27T20:21:42;101340.75;;;12.93;67.94
5883;BME280;2967;51.488;6.618;2023-04-27T20:27:27;101335.44;;;12.93;66.60
5883;BME280;2967;51.488;6.618;2023-04-27T20:32:29;101337.34;;;12.91;66.84
5883;BME280;2967;51.488;6.618;2023-04-27T20:37:32;101318.34;;;12.84;67.47
5883;BME280;2967;51.488;6.618;2023-04-27T20:42:37;101310.88;;;12.77;66.40
5883;BME280;2967;51.488;6.618;2023-04-27T20:47:39;101316.72;;;12.82;65.25
5883;BME280;2967;51.488;6.618;2023-04-27T20:52:42;101313.75;;;12.86;67.04
5883;BME280;2967;51.488;6.618;2023-04-27T20:57:46;101300.16;;;12.78;66.36
5883;BME280;2967;51.488;6.618;2023-04-27T21:02:49;101301.66;;;12.82;66.08
5883;BME280;2967;51.488;6.618;2023-04-27T21:07:52;101286.97;;;12.77;65.33
5883;BME280;2967;51.488;6.618;2023-04-27T21:12:56;101287.81;;;12.77;66.32
5883;BME280;2967;51.488;6.618;2023-04-27T21:18:00;101273.16;;;12.72;63.97
5883;BME280;2967;51.488;6.618;2023-04-27T21:23:06;101264.50;;;12.82;64.88
5883;BME280;2967;51.488;6.618;2023-04-27T21:28:11;101248.13;;;12.76;65.45
5883;BME280;2967;51.488;6.618;2023-04-27T21:33:14;101247.06;;;12.78;64.68
5883;BME280;2967;51.488;6.618;2023-04-27T21:38:16;101252.69;;;12.74;65.57
5883;BME280;2967;51.488;6.618;2023-04-27T21:43:20;101236.63;;;12.75;64.18
5883;BME280;2967;51.488;6.618;2023-04-27T21:48:23;101220.72;;;12.75;62.83
5883;BME280;2967;51.488;6.618;2023-04-27T21:53:26;101210.22;;;12.74;63.73
5883;BME280;2967;51.488;6.618;2023-04-27T21:58:30;101195.03;;;12.76;63.07
5883;BME280;2967;51.488;6.618;2023-04-27T22:03:32;101190.69;;;12.75;63.44
5883;BME280;2967;51.488;6.618;2023-04-27T22:08:35;101190.75;;;12.73;63.80
5883;BME280;2967;51.488;6.618;2023-04-27T22:13:39;101174.94;;;12.72;63.97
5883;BME280;2967;51.488;6.618;2023-04-27T22:18:42;101173.34;;;12.69;64.24
5883;BME280;2967;51.488;6.618;2023-04-27T22:23:46;101163.13;;;12.63;65.73
5883;BME280;2967;51.488;6.618;2023-04-27T22:28:50;101159.53;;;12.64;64.79
5883;BME280;2967;51.488;6.618;2023-04-27T22:33:52;101156.22;;;12.61;65.61
5883;BME280;2967;51.488;6.618;2023-04-27T22:38:55;101159.97;;;12.58;66.68
5883;BME280;2967;51.488;6.618;2023-04-27T22:43:59;101143.25;;;12.56;66.75
5883;BME280;2967;51.488;6.618;2023-04-27T22:49:01;101150.41;;;12.56;65.84
5883;BME280;2967;51.488;6.618;2023-04-27T22:54:04;101142.31;;;12.57;65.91
5883;BME280;2967;51.488;6.618;2023-04-27T22:59:08;101147.75;;;12.56;66.90
5883;BME280;2967;51.488;6.618;2023-04-27T23:04:11;101142.00;;;12.49;68.57
5883;BME280;2967;51.488;6.618;2023-04-27T23:09:14;101137.53;;;12.50;69.11
5883;BME280;2967;51.488;6.618;2023-04-27T23:14:18;101135.00;;;12.48;70.03
5883;BME280;2967;51.488;6.618;2023-04-27T23:19:21;101136.03;;;12.46;71.05
5883;BME280;2967;51.488;6.618;2023-04-27T23:24:23;101115.13;;;12.41;72.34
5883;BME280;2967;51.488;6.618;2023-04-27T23:29:29;101131.25;;;12.38;72.29
5883;BME280;2967;51.488;6.618;2023-04-27T23:34:31;101113.06;;;12.32;72.37
5883;BME280;2967;51.488;6.618;2023-04-27T23:39:34;101112.34;;;12.30;74.83
5883;BME280;2967;51.488;6.618;2023-04-27T23:44:38;101121.34;;;12.28;76.41
5883;BME280;2967;51.488;6.618;2023-04-27T23:49:41;101113.16;;;12.18;77.50
5883;BME280;2967;51.488;6.618;2023-04-27T23:54:44;101096.78;;;12.12;81.58
5883;BME280;2967;51.488;6.618;2023-04-27T23:59:48;101088.94;;;12.10;83.04
